sensor_id;sensor_type;location;lat;lon;timestamp;pressure;altitude;pressure_sealevel;temperature;humidity
55590;BME280;41452;42.780;23.116;2023-01-27T00:01:26;93484.84;;;-0.58;100.00
55590;BME280;41452;42.780;23.116;2023-01-27T00:03:51;93491.41;;;-0.55;100.00
55590;BME280;41452;42.780;23.116;2023-01-27T00:06:17;93501.09;;;-0.58;100.00
55590;BME280;41452;42.780;23.116;2023-01-27T00:08:42;93494.09;;;-0.64;100.00
55590;BME280;41452;42.780;23.116;2023-01-27T00:11:08;93490.59;;;-0.56;100.00
55590;BME280;41452;42.780;23.116;2023-01-27T00:13:51;93491.22;;;-0.54;100.00
55590;BME280;41452;42.780;23.116;2023-01-27T00:16:17;93489.63;;;-0.55;100.00
55590;BME280;41452;42.780;23.116;2023-01-27T00:18:42;93483.13;;;-0.51;100.00
55590;BME280;41452;42.780;23.116;2023-01-27T00:21:08;93480.03;;;-0.61;100.00
55590;BME280;41452;42.780;23.116;2023-01-27T00:23:51;93490.69;;;-0.49;100.00
55590;BME280;41452;42.780;23.116;2023-01-27T00:26:36;93478.56;;;-0.49;100.00
55590;BME280;41452;42.780;23.116;2023-01-27T00:29:01;93463.72;;;-0.47;100.00
55590;BME280;41452;42.780;23.116;2023-01-27T00:31:26;93468.88;;;-0.47;100.00
55590;BME280;41452;42.780;23.116;2023-01-27T00:34:10;93460.88;;;-0.52;100.00
55590;BME280;41452;42.780;23.116;2023-01-27T00:36:40;93462.31;;;-0.49;100.00
55590;BME280;41452;42.780;23.116;2023-01-27T00:39:07;93466.44;;;-0.55;100.00
55590;BME280;41452;42.780;23.116;2023-01-27T00:41:34;93460.25;;;-0.54;100.00
55590;BME280;41452;42.780;23.116;2023-01-27T00:44:00;93461.69;;;-0.51;100.00
55590;BME280;41452;42.780;23.116;2023-01-27T00:46:25;93434.19;;;-0.66;100.00
55590;BME280;41452;42.780;23.116;2023-01-27T00:48:51;93448.59;;;-0.50;100.00
55590;BME280;41452;42.780;23.116;2023-01-27T00:51:17;93454.69;;;-0.58;100.00
55590;BME280;41452;42.780;23.116;2023-01-27T00:53:43;93450.97;;;-0.70;100.00
55590;BME280;41452;42.780;23.116;2023-01-27T00:56:09;93464.19;;;-0.58;100.00
55590;BME280;41452;42.780;23.116;2023-01-27T00:58:35;93438.66;;;-0.74;100.00
55590;BME280;41452;42.780;23.116;2023-01-27T01:01:02;93464.56;;;-0.61;100.00
55590;BME280;41452;42.780;23.116;2023-01-27T01:03:29;93461.63;;;-0.58;100.00
55590;BME280;41452;42.780;23.116;2023-01-27T01:05:59;93458.00;;;-0.64;100.00
55590;BME280;41452;42.780;23.116;2023-01-27T01:08:26;93452.59;;;-0.69;100.00
55590;BME280;41452;42.780;23.116;2023-01-27T01:10:51;93454.31;;;-0.76;100.00
55590;BME280;41452;42.780;23.116;2023-01-27T01:13:17;93461.47;;;-0.71;100.00
55590;BME280;41452;42.780;23.116;2023-01-27T01:15:43;93462.91;;;-0.69;100.00
55590;BME280;41452;42.780;23.116;2023-01-27T01:18:10;93469.00;;;-0.55;100.00
55590;BME280;41452;42.780;23.116;2023-01-27T01:20:37;93473.78;;;-0.52;100.00
55590;BME280;41452;42.780;23.116;2023-01-27T01:23:04;93475.56;;;-0.52;100.00
55590;BME280;41452;42.780;23.116;2023-01-27T01:25:29;93469.22;;;-0.50;100.00
55590;BME280;41452;42.780;23.116;2023-01-27T01:27:55;93404.75;;;-0.93;100.00
55590;BME280;41452;42.780;23.116;2023-01-27T01:30:20;93482.94;;;-0.49;100.00
55590;BME280;41452;42.780;23.116;2023-01-27T01:32:46;93475.38;;;-0.51;100.00
55590;BME280;41452;42.780;23.116;2023-01-27T01:35:12;93460.59;;;-0.64;100.00
55590;BME280;41452;42.780;23.116;2023-01-27T01:37:37;93467.28;;;-0.48;100.00
55590;BME280;41452;42.780;23.116;2023-01-27T01:40:03;93470.47;;;-0.46;100.00
55590;BME280;41452;42.780;23.116;2023-01-27T01:43:14;93463.19;;;-0.57;100.00
55590;BME280;41452;42.780;23.116;2023-01-27T01:45:48;93428.88;;;-0.79;100.00
55590;BME280;41452;42.780;23.116;2023-01-27T01:48:18;93483.38;;;-0.46;100.00
55590;BME280;41452;42.780;23.116;2023-01-27T01:51:08;93486.50;;;-0.50;100.00
55590;BME280;41452;42.780;23.116;2023-01-27T01:54:15;93493.69;;;-0.46;100.00
55590;BME280;41452;42.780;23.116;2023-01-27T01:56:46;93467.94;;;-0.61;100.00
55590;BME280;41452;42.780;23.116;2023-01-27T01:59:41;93479.53;;;-0.50;100.00
55590;BME280;41452;42.780;23.116;2023-01-27T02:02:12;93467.03;;;-0.53;100.00
55590;BME280;41452;42.780;23.116;2023-01-27T02:04:43;93474.19;;;-0.48;100.00
55590;BME280;41452;42.780;23.116;2023-01-27T02:07:17;93469.03;;;-0.48;100.00
55590;BME280;41452;42.780;23.116;2023-01-27T02:09:44;93450.19;;;-0.49;100.00
55590;BME280;41452;42.780;23.116;2023-01-27T02:12:09;93428.88;;;-0.58;100.00
55590;BME280;41452;42.780;23.116;2023-01-27T02:14:35;93445.03;;;-0.49;100.00
55590;BME280;41452;42.780;23.116;2023-01-27T02:17:01;93437.84;;;-0.53;100.00
55590;BME280;41452;42.780;23.116;2023-01-27T02:22:04;93411.84;;;-0.59;100.00
55590;BME280;41452;42.780;23.116;2023-01-27T02:24:42;93416.66;;;-0.49;100.00
55590;BME280;41452;42.780;23.116;2023-01-27T02:27:10;93406.72;;;-0.52;100.00
55590;BME280;41452;42.780;23.116;2023-01-27T02:29:38;93399.97;;;-0.53;100.00
55590;BME280;41452;42.780;23.116;2023-01-27T02:32:03;93394.66;;;-0.45;100.00
55590;BME280;41452;42.780;23.116;2023-01-27T02:34:32;93380.97;;;-0.45;100.00
55590;BME280;41452;42.780;23.116;2023-01-27T02:37:04;93371.34;;;-0.58;100.00
55590;BME280;41452;42.780;23.116;2023-01-27T02:39:36;93340.69;;;-0.74;100.00
55590;BME280;41452;42.780;23.116;2023-01-27T02:42:05;93398.78;;;-0.50;100.00
55590;BME280;41452;42.780;23.116;2023-01-27T02:44:32;93395.19;;;-0.56;100.00
55590;BME280;41452;42.780;23.116;2023-01-27T02:46:57;93395.97;;;-0.55;100.00
55590;BME280;41452;42.780;23.116;2023-01-27T02:49:22;93397.31;;;-0.60;100.00
55590;BME280;41452;42.780;23.116;2023-01-27T02:51:48;93390.38;;;-0.59;100.00
55590;BME280;41452;42.780;23.116;2023-01-27T02:54:13;93386.22;;;-0.60;100.00
55590;BME280;41452;42.780;23.116;2023-01-27T02:56:38;93381.19;;;-0.68;100.00
55590;BME280;41452;42.780;23.116;2023-01-27T02:59:04;93386.41;;;-0.62;100.00
55590;BME280;41452;42.780;23.116;2023-01-27T03:01:29;93397.41;;;-0.53;100.00
55590;BME280;41452;42.780;23.116;2023-01-27T03:03:57;93405.75;;;-0.51;100.00
55590;BME280;41452;42.780;23.116;2023-01-27T03:06:22;93406.47;;;-0.57;100.00
55590;BME280;41452;42.780;23.116;2023-01-27T03:08:48;93397.94;;;-0.58;100.00
55590;BME280;41452;42.780;23.116;2023-01-27T03:11:13;93378.00;;;-0.70;100.00
55590;BME280;41452;42.780;23.116;2023-01-27T03:13:39;93398.00;;;-0.51;100.00
55590;BME280;41452;42.780;23.116;2023-01-27T03:16:05;93394.75;;;-0.60;100.00
55590;BME280;41452;42.780;23.116;2023-01-27T03:18:50;93398.78;;;-0.50;100.00
55590;BME280;41452;42.780;23.116;2023-01-27T03:21:18;93352.94;;;-0.77;100.00
55590;BME280;41452;42.780;23.116;2023-01-27T03:23:44;93368.34;;;-0.62;100.00
55590;BME280;41452;42.780;23.116;2023-01-27T03:26:13;93387.88;;;-0.52;100.00
55590;BME280;41452;42.780;23.116;2023-01-27T03:28:39;93382.03;;;-0.61;100.00
55590;BME280;41452;42.780;23.116;2023-01-27T03:31:06;93386.84;;;-0.58;100.00
55590;BME280;41452;42.780;23.116;2023-01-27T03:33:32;93363.25;;;-0.77;100.00
55590;BME280;41452;42.780;23.116;2023-01-27T03:36:03;93375.31;;;-0.62;100.00
55590;BME280;41452;42.780;23.116;2023-01-27T03:38:47;93373.25;;;-0.67;100.00
55590;BME280;41452;42.780;23.116;2023-01-27T03:41:32;93372.94;;;-0.79;100.00
55590;BME280;41452;42.780;23.116;2023-01-27T03:44:16;93377.50;;;-0.81;100.00
55590;BME280;41452;42.780;23.116;2023-01-27T03:46:59;93374.41;;;-0.91;100.00
55590;BME280;41452;42.780;23.116;2023-01-27T03:49:25;93353.75;;;-0.98;100.00
55590;BME280;41452;42.780;23.116;2023-01-27T03:51:51;93340.97;;;-1.06;100.00
55590;BME280;41452;42.780;23.116;2023-01-27T03:54:16;93344.34;;;-1.05;100.00
55590;BME280;41452;42.780;23.116;2023-01-27T03:56:41;93355.03;;;-1.08;100.00
55590;BME280;41452;42.780;23.116;2023-01-27T03:59:07;93357.72;;;-1.17;100.00
55590;BME280;41452;42.780;23.116;2023-01-27T04:01:32;93350.16;;;-1.18;100.00
55590;BME280;41452;42.780;23.116;2023-01-27T04:03:57;93347.69;;;-1.26;100.00
55590;BME280;41452;42.780;23.116;2023-01-27T04:06:41;93352.63;;;-1.31;100.00
55590;BME280;41452;42.780;23.116;2023-01-27T04:09:21;93346.03;;;-1.34;100.00
55590;BME280;41452;42.780;23.116;2023-01-27T04:11:47;93342.84;;;-1.36;100.00
55590;BME280;41452;42.780;23.116;2023-01-27T04:16:52;93341.38;;;-1.60;100.00
55590;BME280;41452;42.780;23.116;2023-01-27T04:19:18;93364.38;;;-1.59;100.00
55590;BME280;41452;42.780;23.116;2023-01-27T04:21:44;93355.16;;;-1.68;100.00
55590;BME280;41452;42.780;23.116;2023-01-27T04:24:11;93320.94;;;-1.98;100.00
55590;BME280;41452;42.780;23.116;2023-01-27T04:26:59;93381.78;;;-1.61;100.00
55590;BME280;41452;42.780;23.116;2023-01-27T04:29:27;93402.03;;;-1.58;100.00
55590;BME280;41452;42.780;23.116;2023-01-27T04:31:53;93376.38;;;-1.81;100.00
55590;BME280;41452;42.780;23.116;2023-01-27T04:34:20;93406.19;;;-1.57;100.00
55590;BME280;41452;42.780;23.116;2023-01-27T04:36:45;93421.47;;;-1.55;100.00
55590;BME280;41452;42.780;23.116;2023-01-27T04:39:12;93431.06;;;-1.49;100.00
55590;BME280;41452;42.780;23.116;2023-01-27T04:41:37;93437.44;;;-1.45;100.00
55590;BME280;41452;42.780;23.116;2023-01-27T04:44:04;93438.69;;;-1.41;100.00
55590;BME280;41452;42.780;23.116;2023-01-27T04:46:30;93448.72;;;-1.31;100.00
55590;BME280;41452;42.780;23.116;2023-01-27T04:48:55;93432.47;;;-1.46;100.00
55590;BME280;41452;42.780;23.116;2023-01-27T04:51:21;93436.19;;;-1.34;100.00
55590;BME280;41452;42.780;23.116;2023-01-27T04:53:46;93445.59;;;-1.26;100.00
55590;BME280;41452;42.780;23.116;2023-01-27T04:56:23;93424.75;;;-1.46;100.00
55590;BME280;41452;42.780;23.116;2023-01-27T04:58:49;93430.88;;;-1.47;100.00
55590;BME280;41452;42.780;23.116;2023-01-27T05:01:15;93446.06;;;-1.38;100.00
55590;BME280;41452;42.780;23.116;2023-01-27T05:03:40;93447.03;;;-1.39;100.00
55590;BME280;41452;42.780;23.116;2023-01-27T05:06:06;93443.03;;;-1.41;100.00
55590;BME280;41452;42.780;23.116;2023-01-27T05:08:31;93436.72;;;-1.39;100.00
55590;BME280;41452;42.780;23.116;2023-01-27T05:10:56;93393.94;;;-1.69;100.00
55590;BME280;41452;42.780;23.116;2023-01-27T05:13:22;93447.28;;;-1.34;100.00
55590;BME280;41452;42.780;23.116;2023-01-27T05:15:47;93413.66;;;-1.47;100.00
55590;BME280;41452;42.780;23.116;2023-01-27T05:18:13;93404.75;;;-1.29;100.00
55590;BME280;41452;42.780;23.116;2023-01-27T05:20:39;93427.38;;;-1.25;100.00
55590;BME280;41452;42.780;23.116;2023-01-27T05:23:04;93412.66;;;-1.46;100.00
55590;BME280;41452;42.780;23.116;2023-01-27T05:25:48;93406.91;;;-1.63;100.00
55590;BME280;41452;42.780;23.116;2023-01-27T05:28:13;93435.84;;;-1.46;100.00
55590;BME280;41452;42.780;23.116;2023-01-27T05:30:39;93410.47;;;-1.64;100.00
55590;BME280;41452;42.780;23.116;2023-01-27T05:33:04;93424.47;;;-1.51;100.00
55590;BME280;41452;42.780;23.116;2023-01-27T05:35:33;93430.63;;;-1.52;100.00
55590;BME280;41452;42.780;23.116;2023-01-27T05:37:59;93409.22;;;-1.68;100.00
55590;BME280;41452;42.780;23.116;2023-01-27T05:40:24;93433.28;;;-1.61;100.00
55590;BME280;41452;42.780;23.116;2023-01-27T05:42:51;93402.91;;;-1.80;100.00
55590;BME280;41452;42.780;23.116;2023-01-27T05:45:16;93415.78;;;-1.65;100.00
55590;BME280;41452;42.780;23.116;2023-01-27T05:47:41;93386.06;;;-1.83;100.00
55590;BME280;41452;42.780;23.116;2023-01-27T05:50:07;93377.25;;;-1.88;100.00
55590;BME280;41452;42.780;23.116;2023-01-27T05:52:33;93400.63;;;-1.75;100.00
55590;BME280;41452;42.780;23.116;2023-01-27T05:54:58;93409.47;;;-1.78;100.00
55590;BME280;41452;42.780;23.116;2023-01-27T05:57:23;93398.22;;;-1.92;100.00
55590;BME280;41452;42.780;23.116;2023-01-27T05:59:49;93369.56;;;-2.03;100.00
55590;BME280;41452;42.780;23.116;2023-01-27T06:02:14;93395.53;;;-1.83;100.00
55590;BME280;41452;42.780;23.116;2023-01-27T06:04:39;93398.94;;;-1.83;100.00
55590;BME280;41452;42.780;23.116;2023-01-27T06:07:05;93403.25;;;-1.83;100.00
55590;BME280;41452;42.780;23.116;2023-01-27T06:09:30;93413.22;;;-1.80;100.00
55590;BME280;41452;42.780;23.116;2023-01-27T06:11:55;93425.91;;;-1.79;100.00
55590;BME280;41452;42.780;23.116;2023-01-27T06:14:21;93432.47;;;-1.76;100.00
55590;BME280;41452;42.780;23.116;2023-01-27T06:16:47;93422.16;;;-1.76;100.00
55590;BME280;41452;42.780;23.116;2023-01-27T06:19:13;93430.53;;;-1.74;100.00
55590;BME280;41452;42.780;23.116;2023-01-27T06:21:39;93432.63;;;-1.78;100.00
55590;BME280;41452;42.780;23.116;2023-01-27T06:24:04;93425.56;;;-1.76;100.00
55590;BME280;41452;42.780;23.116;2023-01-27T06:26:30;93423.84;;;-1.83;100.00
55590;BME280;41452;42.780;23.116;2023-01-27T06:28:55;93425.28;;;-1.81;100.00
55590;BME280;41452;42.780;23.116;2023-01-27T06:31:21;93414.09;;;-1.88;100.00
55590;BME280;41452;42.780;23.116;2023-01-27T06:33:48;93425.53;;;-1.91;100.00
55590;BME280;41452;42.780;23.116;2023-01-27T06:36:16;93425.09;;;-1.94;100.00
55590;BME280;41452;42.780;23.116;2023-01-27T06:38:42;93431.13;;;-1.87;100.00
55590;BME280;41452;42.780;23.116;2023-01-27T06:41:09;93440.47;;;-1.86;100.00
55590;BME280;41452;42.780;23.116;2023-01-27T06:43:34;93436.09;;;-1.85;100.00
55590;BME280;41452;42.780;23.116;2023-01-27T06:46:00;93421.00;;;-1.88;100.00
55590;BME280;41452;42.780;23.116;2023-01-27T06:48:26;93423.94;;;-1.77;100.00
55590;BME280;41452;42.780;23.116;2023-01-27T06:50:52;93428.31;;;-1.77;100.00
55590;BME280;41452;42.780;23.116;2023-01-27T06:53:18;93437.88;;;-1.71;100.00
55590;BME280;41452;42.780;23.116;2023-01-27T06:55:44;93427.31;;;-1.91;100.00
55590;BME280;41452;42.780;23.116;2023-01-27T06:58:11;93436.31;;;-1.72;100.00
55590;BME280;41452;42.780;23.116;2023-01-27T07:00:37;93448.47;;;-1.66;100.00
55590;BME280;41452;42.780;23.116;2023-01-27T07:03:04;93443.13;;;-1.64;100.00
55590;BME280;41452;42.780;23.116;2023-01-27T07:05:30;93440.72;;;-1.66;100.00
55590;BME280;41452;42.780;23.116;2023-01-27T07:07:56;93403.19;;;-1.90;100.00
55590;BME280;41452;42.780;23.116;2023-01-27T07:10:21;93426.34;;;-1.75;100.00
55590;BME280;41452;42.780;23.116;2023-01-27T07:12:47;93412.53;;;-1.74;100.00
55590;BME280;41452;42.780;23.116;2023-01-27T07:15:12;93445.44;;;-1.55;100.00
55590;BME280;41452;42.780;23.116;2023-01-27T07:17:38;93446.25;;;-1.54;100.00
55590;BME280;41452;42.780;23.116;2023-01-27T07:20:04;93463.84;;;-1.58;100.00
55590;BME280;41452;42.780;23.116;2023-01-27T07:22:30;93464.53;;;-1.64;100.00
55590;BME280;41452;42.780;23.116;2023-01-27T07:24:55;93443.84;;;-1.70;100.00
55590;BME280;41452;42.780;23.116;2023-01-27T07:27:22;93447.56;;;-1.58;100.00
55590;BME280;41452;42.780;23.116;2023-01-27T07:29:48;93455.28;;;-1.58;100.00
55590;BME280;41452;42.780;23.116;2023-01-27T07:32:13;93443.66;;;-1.54;100.00
55590;BME280;41452;42.780;23.116;2023-01-27T07:34:39;93440.38;;;-1.63;100.00
55590;BME280;41452;42.780;23.116;2023-01-27T07:37:04;93457.25;;;-1.60;100.00
55590;BME280;41452;42.780;23.116;2023-01-27T07:39:30;93467.38;;;-1.59;100.00
55590;BME280;41452;42.780;23.116;2023-01-27T07:41:55;93465.69;;;-1.66;100.00
55590;BME280;41452;42.780;23.116;2023-01-27T07:44:23;93461.69;;;-1.69;100.00
55590;BME280;41452;42.780;23.116;2023-01-27T07:46:48;93444.03;;;-1.72;100.00
55590;BME280;41452;42.780;23.116;2023-01-27T07:49:13;93450.06;;;-1.65;100.00
55590;BME280;41452;42.780;23.116;2023-01-27T07:51:39;93454.22;;;-1.64;100.00
55590;BME280;41452;42.780;23.116;2023-01-27T07:54:05;93452.25;;;-1.62;100.00
55590;BME280;41452;42.780;23.116;2023-01-27T07:56:30;93451.47;;;-1.62;100.00
55590;BME280;41452;42.780;23.116;2023-01-27T07:58:56;93460.63;;;-1.60;100.00
55590;BME280;41452;42.780;23.116;2023-01-27T08:01:22;93410.09;;;-1.91;100.00
55590;BME280;41452;42.780;23.116;2023-01-27T08:03:48;93433.47;;;-1.77;100.00
55590;BME280;41452;42.780;23.116;2023-01-27T08:06:13;93451.38;;;-1.69;100.00
55590;BME280;41452;42.780;23.116;2023-01-27T08:08:38;93445.78;;;-1.73;100.00
55590;BME280;41452;42.780;23.116;2023-01-27T08:11:06;93454.16;;;-1.70;100.00
55590;BME280;41452;42.780;23.116;2023-01-27T08:13:33;93454.31;;;-1.72;100.00
55590;BME280;41452;42.780;23.116;2023-01-27T08:16:00;93445.28;;;-1.83;100.00
55590;BME280;41452;42.780;23.116;2023-01-27T08:18:27;93425.38;;;-1.89;100.00
55590;BME280;41452;42.780;23.116;2023-01-27T08:20:53;93439.41;;;-1.77;100.00
55590;BME280;41452;42.780;23.116;2023-01-27T08:23:20;93448.81;;;-1.69;100.00
55590;BME280;41452;42.780;23.116;2023-01-27T08:25:50;93435.59;;;-1.81;100.00
55590;BME280;41452;42.780;23.116;2023-01-27T08:28:17;93428.66;;;-1.80;100.00
55590;BME280;41452;42.780;23.116;2023-01-27T08:30:42;93446.94;;;-1.75;100.00
55590;BME280;41452;42.780;23.116;2023-01-27T08:33:08;93451.03;;;-1.66;100.00
55590;BME280;41452;42.780;23.116;2023-01-27T08:35:34;93448.63;;;-1.67;100.00
55590;BME280;41452;42.780;23.116;2023-01-27T08:37:59;93454.94;;;-1.70;100.00
55590;BME280;41452;42.780;23.116;2023-01-27T08:40:25;93464.53;;;-1.64;100.00
55590;BME280;41452;42.780;23.116;2023-01-27T08:42:50;93451.56;;;-1.70;100.00
55590;BME280;41452;42.780;23.116;2023-01-27T08:45:15;93443.41;;;-1.74;100.00
55590;BME280;41452;42.780;23.116;2023-01-27T08:47:41;93462.94;;;-1.65;100.00
55590;BME280;41452;42.780;23.116;2023-01-27T08:50:08;93437.44;;;-1.89;100.00
55590;BME280;41452;42.780;23.116;2023-01-27T08:52:34;93462.66;;;-1.70;100.00
55590;BME280;41452;42.780;23.116;2023-01-27T08:54:59;93473.25;;;-1.65;100.00
55590;BME280;41452;42.780;23.116;2023-01-27T08:57:25;93459.91;;;-1.68;100.00
55590;BME280;41452;42.780;23.116;2023-01-27T08:59:51;93467.91;;;-1.63;100.00
55590;BME280;41452;42.780;23.116;2023-01-27T09:02:16;93472.53;;;-1.59;100.00
55590;BME280;41452;42.780;23.116;2023-01-27T09:04:42;93470.56;;;-1.57;100.00
55590;BME280;41452;42.780;23.116;2023-01-27T09:07:09;93471.19;;;-1.55;100.00
55590;BME280;41452;42.780;23.116;2023-01-27T09:09:34;93462.66;;;-1.55;100.00
55590;BME280;41452;42.780;23.116;2023-01-27T09:12:00;93470.22;;;-1.54;100.00
55590;BME280;41452;42.780;23.116;2023-01-27T09:14:25;93472.53;;;-1.59;100.00
55590;BME280;41452;42.780;23.116;2023-01-27T09:16:51;93468.59;;;-1.55;100.00
55590;BME280;41452;42.780;23.116;2023-01-27T09:19:16;93474.41;;;-1.52;100.00
55590;BME280;41452;42.780;23.116;2023-01-27T09:21:41;93462.03;;;-1.57;100.00
55590;BME280;41452;42.780;23.116;2023-01-27T09:24:07;93457.84;;;-1.58;100.00
55590;BME280;41452;42.780;23.116;2023-01-27T09:26:32;93455.50;;;-1.60;100.00
55590;BME280;41452;42.780;23.116;2023-01-27T09:28:57;93456.72;;;-1.56;100.00
55590;BME280;41452;42.780;23.116;2023-01-27T09:31:23;93455.56;;;-1.53;100.00
55590;BME280;41452;42.780;23.116;2023-01-27T09:33:48;93456.72;;;-1.56;100.00
55590;BME280;41452;42.780;23.116;2023-01-27T09:36:17;93459.91;;;-1.54;100.00
55590;BME280;41452;42.780;23.116;2023-01-27T09:39:00;93446.41;;;-1.56;100.00
55590;BME280;41452;42.780;23.116;2023-01-27T09:47:23;93437.78;;;-1.48;100.00
55590;BME280;41452;42.780;23.116;2023-01-27T09:53:02;93438.25;;;-1.44;100.00
55590;BME280;41452;42.780;23.116;2023-01-27T09:58:33;93431.25;;;-1.50;100.00
55590;BME280;41452;42.780;23.116;2023-01-27T10:01:15;93422.25;;;-1.55;100.00
55590;BME280;41452;42.780;23.116;2023-01-27T10:04:25;93433.09;;;-1.44;100.00
55590;BME280;41452;42.780;23.116;2023-01-27T10:15:48;93407.28;;;-1.51;100.00
55590;BME280;41452;42.780;23.116;2023-01-27T10:26:41;93400.22;;;-1.42;100.00
55590;BME280;41452;42.780;23.116;2023-01-27T10:29:27;93399.16;;;-1.48;100.00
55590;BME280;41452;42.780;23.116;2023-01-27T10:32:06;93403.78;;;-1.43;100.00
55590;BME280;41452;42.780;23.116;2023-01-27T10:34:39;93398.63;;;-1.43;100.00
55590;BME280;41452;42.780;23.116;2023-01-27T10:40:02;93397.91;;;-1.37;100.00
55590;BME280;41452;42.780;23.116;2023-01-27T10:50:06;93392.84;;;-1.30;100.00
55590;BME280;41452;42.780;23.116;2023-01-27T10:53:32;93390.97;;;-1.22;100.00
55590;BME280;41452;42.780;23.116;2023-01-27T11:01:35;93377.31;;;-1.37;100.00
55590;BME280;41452;42.780;23.116;2023-01-27T11:04:17;93386.59;;;-1.21;100.00
55590;BME280;41452;42.780;23.116;2023-01-27T11:06:46;93394.50;;;-1.23;100.00
55590;BME280;41452;42.780;23.116;2023-01-27T11:09:19;93367.47;;;-1.48;100.00
55590;BME280;41452;42.780;23.116;2023-01-27T11:11:49;93403.16;;;-1.30;100.00
55590;BME280;41452;42.780;23.116;2023-01-27T11:16:58;93390.44;;;-1.32;100.00
55590;BME280;41452;42.780;23.116;2023-01-27T11:19:37;93384.31;;;-1.46;100.00
55590;BME280;41452;42.780;23.116;2023-01-27T11:22:14;93373.97;;;-1.52;100.00
55590;BME280;41452;42.780;23.116;2023-01-27T11:24:44;93366.69;;;-1.49;100.00
55590;BME280;41452;42.780;23.116;2023-01-27T11:27:26;93393.84;;;-1.31;100.00
55590;BME280;41452;42.780;23.116;2023-01-27T11:30:02;93383.59;;;-1.25;100.00
55590;BME280;41452;42.780;23.116;2023-01-27T11:32:49;93381.81;;;-1.24;100.00
55590;BME280;41452;42.780;23.116;2023-01-27T11:35:16;93353.88;;;-1.42;100.00
55590;BME280;41452;42.780;23.116;2023-01-27T11:37:48;93362.94;;;-1.31;100.00
55590;BME280;41452;42.780;23.116;2023-01-27T11:42:48;93384.94;;;-1.29;100.00
55590;BME280;41452;42.780;23.116;2023-01-27T11:45:16;93382.53;;;-1.30;100.00
55590;BME280;41452;42.780;23.116;2023-01-27T11:47:43;93389.47;;;-1.31;100.00
55590;BME280;41452;42.780;23.116;2023-01-27T11:50:17;93381.75;;;-1.31;100.00
55590;BME280;41452;42.780;23.116;2023-01-27T11:52:47;93356.22;;;-1.47;100.00
55590;BME280;41452;42.780;23.116;2023-01-27T11:55:17;93375.81;;;-1.31;100.00
55590;BME280;41452;42.780;23.116;2023-01-27T11:58:00;93354.59;;;-1.48;100.00
55590;BME280;41452;42.780;23.116;2023-01-27T12:00:36;93374.72;;;-1.37;100.00
55590;BME280;41452;42.780;23.116;2023-01-27T12:06:02;93379.09;;;-1.38;100.00
55590;BME280;41452;42.780;23.116;2023-01-27T12:08:36;93370.75;;;-1.40;100.00
55590;BME280;41452;42.780;23.116;2023-01-27T12:14:03;93371.19;;;-1.36;100.00
55590;BME280;41452;42.780;23.116;2023-01-27T12:16:49;93339.50;;;-1.51;100.00
55590;BME280;41452;42.780;23.116;2023-01-27T12:21:50;93367.00;;;-1.37;100.00
55590;BME280;41452;42.780;23.116;2023-01-27T12:24:39;93369.31;;;-1.27;100.00
55590;BME280;41452;42.780;23.116;2023-01-27T12:27:06;93365.56;;;-1.25;100.00
55590;BME280;41452;42.780;23.116;2023-01-27T12:29:46;93368.25;;;-1.33;100.00
55590;BME280;41452;42.780;23.116;2023-01-27T12:32:23;93358.88;;;-1.19;100.00
55590;BME280;41452;42.780;23.116;2023-01-27T12:34:52;93367.03;;;-1.16;100.00
55590;BME280;41452;42.780;23.116;2023-01-27T12:37:25;93362.31;;;-1.48;100.00
55590;BME280;41452;42.780;23.116;2023-01-27T12:39:58;93363.09;;;-1.33;100.00
55590;BME280;41452;42.780;23.116;2023-01-27T12:47:57;93361.56;;;-1.27;100.00
55590;BME280;41452;42.780;23.116;2023-01-27T12:53:02;93362.00;;;-1.24;100.00
55590;BME280;41452;42.780;23.116;2023-01-27T12:55:32;93372.38;;;-1.17;100.00
55590;BME280;41452;42.780;23.116;2023-01-27T12:57:59;93344.00;;;-1.39;100.00
55590;BME280;41452;42.780;23.116;2023-01-27T13:00:25;93347.38;;;-1.38;100.00
55590;BME280;41452;42.780;23.116;2023-01-27T13:02:51;93334.59;;;-1.46;100.00
55590;BME280;41452;42.780;23.116;2023-01-27T13:05:22;93358.81;;;-1.26;100.00
55590;BME280;41452;42.780;23.116;2023-01-27T13:07:50;93362.38;;;-1.27;100.00
55590;BME280;41452;42.780;23.116;2023-01-27T13:10:24;93358.91;;;-1.34;100.00
55590;BME280;41452;42.780;23.116;2023-01-27T13:12:57;93358.00;;;-1.26;100.00
55590;BME280;41452;42.780;23.116;2023-01-27T13:15:24;93364.84;;;-1.19;100.00
55590;BME280;41452;42.780;23.116;2023-01-27T13:17:54;93326.78;;;-1.38;100.00
55590;BME280;41452;42.780;23.116;2023-01-27T13:20:30;93370.84;;;-1.11;100.00
55590;BME280;41452;42.780;23.116;2023-01-27T13:23:23;93379.38;;;-1.11;100.00
55590;BME280;41452;42.780;23.116;2023-01-27T13:26:32;93316.69;;;-1.55;100.00
55590;BME280;41452;42.780;23.116;2023-01-27T13:34:25;93368.91;;;-1.09;100.00
55590;BME280;41452;42.780;23.116;2023-01-27T13:42:27;93375.44;;;-1.07;100.00
55590;BME280;41452;42.780;23.116;2023-01-27T13:47:28;93374.84;;;-1.09;100.00
55590;BME280;41452;42.780;23.116;2023-01-27T13:52:48;93377.22;;;-1.07;100.00
55590;BME280;41452;42.780;23.116;2023-01-27T13:55:15;93377.66;;;-1.04;100.00
55590;BME280;41452;42.780;23.116;2023-01-27T13:57:58;93387.19;;;-1.04;100.00
55590;BME280;41452;42.780;23.116;2023-01-27T14:00:31;93365.97;;;-1.21;100.00
55590;BME280;41452;42.780;23.116;2023-01-27T14:05:57;93398.63;;;-1.07;100.00
55590;BME280;41452;42.780;23.116;2023-01-27T14:11:15;93394.41;;;-1.15;100.00
55590;BME280;41452;42.780;23.116;2023-01-27T14:25:00;93399.81;;;-1.09;100.00
55590;BME280;41452;42.780;23.116;2023-01-27T14:27:36;93398.84;;;-1.08;100.00
55590;BME280;41452;42.780;23.116;2023-01-27T14:32:41;93404.88;;;-1.01;100.00
55590;BME280;41452;42.780;23.116;2023-01-27T14:35:34;93414.94;;;-1.21;100.00
55590;BME280;41452;42.780;23.116;2023-01-27T14:38:10;93413.72;;;-1.25;100.00
55590;BME280;41452;42.780;23.116;2023-01-27T14:57:01;93425.94;;;-1.12;100.00